Terminal Aerodrome Forecast
Issued by NWS

Home | Current Version | Previous Version | Text Only | Print | Product List | Glossary On
Versions: 1 2 3 4 5 6 7 8 9 10 11 12 13 14 15
000
FTUS45 KRIW 271300 AAA
TAFCPR
TAF AMD
KCPR 271313Z 2713/2812 23006KT P6SM SCT070 BKN100
     FM271900 28013KT P6SM SCT070
     FM280100 24008KT P6SM SKC=

USA.gov is the U.S. government's official web portal to all federal, state and local government web resources and services.